Terminal Aerodrome Forecast
Issued by NWS Paducah, KY

Home | Current Version | Previous Version | Graphics & Text | Print | Product List | Glossary On
Versions: 1 2 3 4 5 6 7 8 9 10 11 12 13 14 15
000
FTUS43 KPAH 291700
TAFEVV
TAF
KEVV 291732Z 2918/3018 18007KT P6SM SCT050
     FM300300 19004KT P6SM BKN080 PROB30 3009/3014 4SM -TSRA
      BKN060CB
     FM301400 16004KT 4SM -TSRA BR BKN050CB
      TEMPO 3016/3018 2SM -TSRA BR OVC025CB=

USA.gov is the U.S. government's official web portal to all federal, state and local government web resources and services.